Flight Track Log - Related Links

Times and Time Zones

All times are in EDT time to prevent confusion due to time zone crossing. See the RPA3247 flight status page for this flight to view local times or setup timezone preferences in your user account.

Time Position Orientation Groundspeed Altitude Reporting Facility
EDT Latitude Longitude Course Direction KTS MPH feet Rate Location/Type
Thu 08:06:32 PM 38.8167 -77.0333 233° Southwest 162 186 1,700  Level Potomac TRACON
Thu 08:07:38 PM 38.7500 -77.0333 180° South 243 280 3,600 1,650 Climbing Potomac TRACON
Thu 08:08:00 PM 38.6852 -77.3463 237° Southwest  Level FlightAware Approximate
Thu 08:08:32 PM 38.7333 -77.1167 256° West 256 295 5,000  Level Potomac TRACON
Thu 08:09:00 PM 38.6266 -77.4494 234° Southwest  Level FlightAware Approximate
Thu 08:09:32 PM 38.7167 -77.2000 256° West 253 291 5,300  Level Potomac TRACON
Thu 08:10:00 PM 38.5841 -77.5642 247° West  Level FlightAware Approximate
Thu 08:10:38 PM 38.7000 -77.3000 258° West 258 297 8,800  Level Potomac TRACON
Thu 08:11:00 PM 38.5279 -77.6702 233° Southwest  Level FlightAware Approximate
Thu 08:11:38 PM 38.6667 -77.3833 243° Southwest 269 310 11,200  Level Potomac TRACON
Thu 08:12:32 PM 38.6333 -77.4667 243° Southwest 295 339 13,400 2,289 Climbing Potomac TRACON
Thu 08:13:15 PM 38.6019 -77.5203 233° Southwest 299 344 14,900 2,330 Climbing Washington Center
Thu 08:14:15 PM 38.5608 -77.6147 241° Southwest 309 356 17,400 2,150 Climbing Washington Center
Thu 08:15:15 PM 38.5111 -77.7169 238° Southwest 309 356 19,200 1,800 Climbing Washington Center
Thu 08:16:15 PM 38.4656 -77.8086 238° Southwest 309 356 21,000 900 Climbing Washington Center
Thu 08:17:15 PM 38.4158 -77.9025 236° Southwest 315 362 21,000 50 Level Washington Center
Thu 08:18:15 PM 38.3681 -77.9936 236° Southwest 320 368 21,100 900 Climbing Washington Center
Thu 08:19:15 PM 38.3206 -78.0847 236° Southwest 320 368 22,800 1,650 Climbing Washington Center
Thu 08:20:15 PM 38.2706 -78.1808 236° Southwest 320 368 24,400 1,550 Climbing Washington Center
Thu 08:21:15 PM 38.2203 -78.2769 236° Southwest 325 374 25,900 1,400 Climbing Washington Center
Thu 08:22:15 PM 38.1681 -78.3728 235° Southwest 325 374 27,200 1,250 Climbing Washington Center
Thu 08:23:15 PM 38.1178 -78.4739 238° Southwest 330 380 28,400 1,150 Climbing Washington Center
Thu 08:24:15 PM 38.0839 -78.5833 249° West 330 380 29,500 950 Climbing Washington Center
Thu 08:25:15 PM 38.0456 -78.6925 246° West 336 387 30,300 850 Climbing Washington Center
Thu 08:26:15 PM 38.0072 -78.8069 247° West 341 392 31,200 850 Climbing Washington Center
Thu 08:27:15 PM 37.9708 -78.9161 247° West 346 398 32,000 400 Climbing Washington Center
Thu 08:28:15 PM 37.9347 -79.0172 246° West 353 406 32,000  Level Washington Center
Thu 08:29:15 PM 37.8939 -79.1283 245° Southwest 353 406 32,000  Level Washington Center
Thu 08:30:15 PM 37.8428 -79.2339 239° Southwest 353 406 32,000  Level Washington Center
Thu 08:31:15 PM 37.7869 -79.3467 238° Southwest 358 412 32,000 450 Level Washington Center
Thu 08:32:15 PM 37.7336 -79.4492 237° Southwest 358 412 32,900 750 Climbing Washington Center
Thu 08:33:15 PM 37.6825 -79.5517 238° Southwest 358 412 33,500 550 Climbing Washington Center
Thu 08:34:15 PM 37.6333 -79.6461 237° Southwest 358 412 34,000 250 Climbing Washington Center
Thu 08:35:15 PM 37.5775 -79.7583 238° Southwest 358 412 34,000  Level Washington Center
Thu 08:36:15 PM 37.5233 -79.8681 238° Southwest 358 412 34,000  Level Washington Center
Thu 08:37:15 PM 37.4717 -79.9697 237° Southwest 358 412 34,000  Level Washington Center
Thu 08:39:05 PM 37.3808 -80.1422 237° Southwest 358 412 34,000  Level Atlanta Center
Thu 08:40:05 PM 37.3278 -80.2442 237° Southwest 358 412 34,000  Level Atlanta Center
Thu 08:41:05 PM 37.2767 -80.3431 237° Southwest 353 406 34,000  Level Atlanta Center
Thu 08:42:05 PM 37.2194 -80.4528 237° Southwest 353 406 34,000  Level Atlanta Center
Thu 08:43:05 PM 37.1681 -80.5539 237° Southwest 353 406 34,000  Level Atlanta Center
Thu 08:44:05 PM 37.1147 -80.6553 237° Southwest 353 406 34,000  Level Atlanta Center
Thu 08:45:05 PM 37.0675 -80.7614 241° Southwest 353 406 34,000  Level Atlanta Center
Thu 08:46:05 PM 37.0344 -80.8536 246° West 342 394 34,000  Level Atlanta Center
Thu 08:47:05 PM 36.9978 -80.9617 247° West 336 387 34,000  Level Atlanta Center
Thu 08:48:05 PM 36.9586 -81.0672 245° Southwest 336 387 34,000  Level Atlanta Center
Thu 08:49:05 PM 36.9217 -81.1750 247° West 341 392 34,000  Level Atlanta Center
Thu 08:50:05 PM 36.8783 -81.2933 245° Southwest 341 392 34,000  Level Atlanta Center
Thu 08:51:05 PM 36.8411 -81.3983 246° West 341 392 34,000  Level Atlanta Center
Thu 08:52:05 PM 36.8017 -81.5058 245° Southwest 341 392 34,000  Level Atlanta Center
Thu 08:53:05 PM 36.7642 -81.6158 247° West 341 392 34,000  Level Atlanta Center
Thu 08:54:05 PM 36.7267 -81.7208 246° West 336 387 34,000  Level Atlanta Center
Thu 08:55:05 PM 36.6850 -81.8306 245° Southwest 341 392 34,000  Level Atlanta Center
Thu 08:56:05 PM 36.6450 -81.9403 246° West 341 392 34,000  Level Atlanta Center
Thu 08:57:05 PM 36.6053 -82.0475 245° Southwest 347 399 34,000  Level Atlanta Center
Thu 08:58:05 PM 36.5653 -82.1569 246° West 347 399 34,000  Level Atlanta Center
Thu 08:59:05 PM 36.5231 -82.2664 244° Southwest 347 399 34,000  Level Atlanta Center
Thu 09:00:05 PM 36.4828 -82.3758 245° Southwest 347 399 34,000  Level Atlanta Center
Thu 09:01:05 PM 36.4428 -82.4878 246° West 347 399 34,000  Level Atlanta Center
Thu 09:02:05 PM 36.4042 -82.5864 244° Southwest 352 405 34,000  Level Atlanta Center
Thu 09:03:05 PM 36.3617 -82.6981 245° Southwest 352 405 34,000  Level Atlanta Center
Thu 09:04:05 PM 36.3211 -82.8069 245° Southwest 357 411 34,000  Level Atlanta Center
Thu 09:05:05 PM 36.2783 -82.9158 244° Southwest 357 411 34,000  Level Atlanta Center
Thu 09:06:05 PM 36.2397 -83.0219 246° West 357 411 34,000  Level Atlanta Center
Thu 09:07:05 PM 36.1989 -83.1306 245° Southwest 352 405 34,000  Level Atlanta Center
Thu 09:08:05 PM 36.1558 -83.2417 244° Southwest 352 405 34,000  Level Atlanta Center
Thu 09:09:05 PM 36.1169 -83.3472 246° West 347 399 34,000  Level Atlanta Center
Thu 09:10:05 PM 36.0756 -83.4556 245° Southwest 347 399 34,000  Level Atlanta Center
Thu 09:11:05 PM 36.0344 -83.5611 244° Southwest 342 394 34,000  Level Atlanta Center
Thu 09:12:05 PM 35.9950 -83.6667 245° Southwest 342 394 34,000  Level Atlanta Center
Thu 09:13:05 PM 35.9536 -83.7719 244° Southwest 342 394 34,000  Level Atlanta Center
Thu 09:14:05 PM 35.9100 -83.8797 243° Southwest 342 394 34,000  Level Atlanta Center
Thu 09:15:05 PM 35.8456 -83.9772 231° Southwest 357 411 34,000  Level Atlanta Center
Thu 09:16:05 PM 35.7789 -84.0744 230° Southwest 370 426 34,000  Level Atlanta Center
Thu 09:17:05 PM 35.7097 -84.1692 228° Southwest 375 432 34,000  Level Atlanta Center
Thu 09:18:05 PM 35.6408 -84.2636 228° Southwest 381 438 34,000  Level Atlanta Center
Thu 09:19:05 PM 35.5739 -84.3581 229° Southwest 381 438 34,000  Level Atlanta Center
Thu 09:20:05 PM 35.5047 -84.4544 229° Southwest 381 438 34,000  Level Atlanta Center
Thu 09:21:05 PM 35.4356 -84.5461 227° Southwest 381 438 34,000  Level Atlanta Center
Thu 09:22:05 PM 35.3706 -84.6397 230° Southwest 381 438 34,000  Level Atlanta Center
Thu 09:23:05 PM 35.2947 -84.7411 228° Southwest 381 438 34,000  Level Atlanta Center
Thu 09:24:05 PM 35.2275 -84.8344 229° Southwest 381 438 34,000  Level Atlanta Center
Thu 09:25:05 PM 35.1581 -84.9281 228° Southwest 376 433 34,000  Level Atlanta Center
Thu 09:26:05 PM 35.0906 -85.0211 228° Southwest 376 433 34,000  Level Atlanta Center
Thu 09:27:05 PM 35.0231 -85.1117 228° Southwest 371 427 34,000  Level Atlanta Center
Thu 09:28:05 PM 34.9553 -85.2044 228° Southwest 371 427 34,000  Level Atlanta Center
Thu 09:29:05 PM 34.8878 -85.2972 228° Southwest 371 427 34,000  Level Atlanta Center
Thu 09:30:05 PM 34.8178 -85.3897 227° Southwest 371 427 34,000  Level Atlanta Center
Thu 09:31:05 PM 34.7500 -85.4797 228° Southwest 371 427 34,000  Level Atlanta Center
Thu 09:32:05 PM 34.6842 -85.5694 228° Southwest 366 421 34,000  Level Atlanta Center
Thu 09:33:05 PM 34.6164 -85.6617 228° Southwest 366 421 34,000  Level Atlanta Center
Thu 09:34:05 PM 34.5461 -85.7536 227° Southwest 371 427 34,000  Level Atlanta Center
Thu 09:35:05 PM 34.4844 -85.8331 227° Southwest 371 427 34,000  Level Atlanta Center
Thu 09:36:05 PM 34.4186 -85.9222 228° Southwest 371 427 34,000  Level Atlanta Center
Thu 09:37:05 PM 34.3483 -86.0139 227° Southwest 371 427 34,000  Level Atlanta Center
Thu 09:38:05 PM 34.2800 -86.1053 228° Southwest 371 427 34,000  Level Atlanta Center
Thu 09:39:05 PM 34.2117 -86.1942 227° Southwest 371 427 34,000  Level Atlanta Center
Thu 09:40:05 PM 34.1453 -86.2828 228° Southwest 371 427 34,000  Level Atlanta Center
Thu 09:41:05 PM 34.0769 -86.3711 227° Southwest 371 427 34,000  Level Atlanta Center
Thu 09:42:05 PM 34.0064 -86.4619 227° Southwest 371 427 34,000  Level Atlanta Center
Thu 09:43:05 PM 33.9378 -86.5503 227° Southwest 371 427 34,000  Level Atlanta Center
Thu 09:44:05 PM 33.8669 -86.6406 227° Southwest 371 427 34,000  Level Atlanta Center
Thu 09:45:05 PM 33.8003 -86.7286 228° Southwest 366 421 34,000  Level Atlanta Center
Thu 09:46:05 PM 33.7294 -86.8189 227° Southwest 366 421 34,000  Level Atlanta Center
Thu 09:47:05 PM 33.6628 -86.9089 228° Southwest 366 421 34,000  Level Atlanta Center
Thu 09:48:05 PM 33.6000 -87.0017 231° Southwest 366 421 34,000  Level Atlanta Center
Thu 09:49:05 PM 33.5372 -87.0967 232° Southwest 366 421 34,000  Level Atlanta Center
Thu 09:50:05 PM 33.4742 -87.1942 232° Southwest 366 421 34,000  Level Atlanta Center
Thu 09:52:21 PM 33.3219 -87.4186 231° Southwest 363 418 34,000  Level Memphis Center
Thu 09:53:21 PM 33.2592 -87.5128 231° Southwest 363 418 34,000  Level Memphis Center
Thu 09:54:21 PM 33.1967 -87.6092 232° Southwest 368 423 34,000  Level Memphis Center
Thu 09:55:21 PM 33.1319 -87.7003 230° Southwest 368 423 34,000  Level Memphis Center
Thu 09:56:21 PM 33.0692 -87.7939 231° Southwest 368 423 34,000  Level Memphis Center
Thu 09:57:21 PM 33.0064 -87.8875 231° Southwest 368 423 34,000  Level Memphis Center
Thu 09:58:21 PM 32.9539 -87.9756 235° Southwest 368 423 34,000  Level Memphis Center
Thu 09:59:21 PM 32.8889 -88.0689 230° Southwest 368 423 34,000  Level Memphis Center
Thu 10:00:21 PM 32.8194 -88.1572 227° Southwest 368 423 34,000  Level Memphis Center
Thu 10:01:21 PM 32.7436 -88.2431 224° Southwest 373 429 34,000  Level Memphis Center
Thu 10:02:21 PM 32.6700 -88.3311 225° Southwest 379 436 34,000  Level Memphis Center
Thu 10:03:21 PM 32.5961 -88.4192 225° Southwest 379 436 34,000  Level Memphis Center
Thu 10:04:21 PM 32.5225 -88.5044 224° Southwest 379 436 34,000  Level Memphis Center
Thu 10:05:21 PM 32.4506 -88.5922 226° Southwest 379 436 34,000  Level Memphis Center
Thu 10:06:21 PM 32.3744 -88.6797 224° Southwest 379 436 34,000  Level Memphis Center
Thu 10:07:21 PM 32.3006 -88.7647 224° Southwest 374 430 34,000  Level Memphis Center
Thu 10:08:21 PM 32.2264 -88.8519 225° Southwest 374 430 34,000  Level Memphis Center
Thu 10:09:21 PM 32.1503 -88.9392 224° Southwest 380 437 34,000  Level Memphis Center
Thu 10:10:21 PM 32.0739 -89.0261 224° Southwest 380 437 34,000  Level Memphis Center
Thu 10:11:21 PM 31.9997 -89.1131 225° Southwest 380 437 34,000  Level Memphis Center
Thu 10:12:21 PM 31.9233 -89.2022 225° Southwest 380 437 34,000 -1,294 Level Memphis Center
Thu 10:14:45 PM 31.7417 -89.4067 224° Southwest 388 447 29,600 -1,756 Descending Houston Center
Thu 10:15:46 PM 31.6656 -89.4917 224° Southwest 379 436 28,000 -780 Descending Houston Center
Thu 10:16:48 PM 31.5719 -89.5811 219° Southwest 377 434 28,000  Level Houston Center
Thu 10:17:49 PM 31.4906 -89.6583 219° Southwest 378 435 28,000  Level Houston Center
Thu 10:18:50 PM 31.4050 -89.7308 216° Southwest 380 437 28,000 -541 Level Houston Center
Thu 10:19:51 PM 31.3056 -89.7842 205° Southwest 391 450 26,900 -1,574 Descending Houston Center
Thu 10:20:52 PM 31.2075 -89.8394 206° Southwest 392 451 24,800 -2,016 Descending Houston Center
Thu 10:21:53 PM 31.1114 -89.8914 205° Southwest 382 440 22,800 -1,967 Descending Houston Center
Thu 10:22:54 PM 31.0172 -89.9428 205° Southwest 376 433 20,800 -2,103 Descending Houston Center
Thu 10:23:30 PM 30.9475 -89.9819 206° Southwest 372 428 19,400 -1,869 Descending Houston Center
Thu 10:23:55 PM 30.9256 -89.9939 205° Southwest 367 422 18,900 -1,959 Descending Houston Center
Thu 10:24:19 PM 30.8756 -90.0214 205° Southwest 362 417 17,800 -1,935 Descending Houston Center
Thu 10:24:57 PM 30.8317 -90.0439 204° Southwest 370 426 16,900 -2,111 Descending Houston Center
Thu 10:25:13 PM 30.7894 -90.0661 204° Southwest 374 430 15,900 -2,361 Descending Houston Center
Thu 10:25:58 PM 30.7203 -90.1053 206° Southwest 371 427 14,500 -1,770 Descending Houston Center
Thu 10:26:14 PM 30.6950 -90.1186 204° Southwest 370 426 14,100 -1,574 Descending Houston Center
Thu 10:26:59 PM 30.6297 -90.1503 203° Southwest 358 412 12,900 -1,475 Descending Houston Center
Thu 10:27:15 PM 30.6064 -90.1583 197° South 342 394 12,600 -1,082 Descending Houston Center
Thu 10:28:00 PM 30.5478 -90.1850 201° Southwest 323 372 11,800 -1,525 Descending Houston Center
Thu 10:29:17 PM 30.4494 -90.2253 199° South 286 329 9,500 -1,786 Descending Houston Center
Thu 10:30:11 PM 30.3836 -90.2519 199° South 280 322 7,900 -1,642 Descending Houston Center
Thu 10:31:03 PM 30.3261 -90.2772 201° Southwest 280 322 6,600 -1,785 Descending Houston Center
Thu 10:32:12 PM 30.2328 -90.3158 200° South 275 316 4,300 -1,561 Descending Houston Center
Thu 10:33:06 PM 30.1836 -90.3372 201° Southwest 274 315 3,400 -887 Descending Houston Center
Thu 10:34:07 PM 30.1100 -90.3722 202° Southwest 252 290 2,600 -689 Descending Houston Center
Thu 10:35:08 PM 30.0628 -90.3950 203° Southwest 209 241 2,000 -590 Descending Houston Center

Login

Don't have an account? Register now (free) for customized features, flight alerts, and more!